createdAt,value
2023-05-19T00:01:31.150Z,4.00
2023-05-19T00:04:02.933Z,4.57
2023-05-19T00:06:32.705Z,5.03
2023-05-19T00:09:04.556Z,6.28
2023-05-19T00:11:32.421Z,6.07
2023-05-19T00:14:00.733Z,5.95
2023-05-19T00:19:04.081Z,4.88
2023-05-19T00:21:32.282Z,4.63
2023-05-19T00:24:00.223Z,4.40
2023-05-19T00:26:28.242Z,4.80
2023-05-19T00:29:02.048Z,4.80
2023-05-19T00:31:30.094Z,5.17
2023-05-19T00:33:57.870Z,5.22
2023-05-19T00:36:26.399Z,5.25
2023-05-19T00:38:54.426Z,5.28
2023-05-19T00:41:22.779Z,5.07
2023-05-19T00:51:17.162Z,5.50
2023-05-19T00:53:49.321Z,4.97
2023-05-19T00:56:18.421Z,5.13
2023-05-19T00:58:46.874Z,4.88
2023-05-19T01:03:47.131Z,4.75
2023-05-19T01:06:15.104Z,4.85
2023-05-19T01:08:42.914Z,4.47
2023-05-19T01:11:10.850Z,4.60
2023-05-19T01:13:40.331Z,4.95
2023-05-19T01:16:33.866Z,4.60
2023-05-19T01:19:22.015Z,4.55
2023-05-19T01:24:57.730Z,4.40
2023-05-19T01:28:22.602Z,5.07
2023-05-19T01:30:56.171Z,5.07
2023-05-19T01:33:25.174Z,5.35
2023-05-19T01:35:56.066Z,4.80
2023-05-19T01:38:28.669Z,4.97
2023-05-19T01:40:58.930Z,5.07
2023-05-19T01:43:28.089Z,5.18
2023-05-19T01:45:58.889Z,4.65
2023-05-19T01:48:28.892Z,5.28
2023-05-19T01:50:59.001Z,5.30
2023-05-19T01:53:26.702Z,5.10
2023-05-19T01:55:56.979Z,4.55
2023-05-19T01:58:36.792Z,4.82
2023-05-19T02:01:33.567Z,4.18
2023-05-19T02:04:06.254Z,4.85
2023-05-19T02:06:52.912Z,4.35
2023-05-19T02:10:04.923Z,3.97
2023-05-19T02:12:37.733Z,5.38
2023-05-19T02:15:17.934Z,4.70
2023-05-19T02:17:50.727Z,5.78
2023-05-19T02:20:18.994Z,5.30
2023-05-19T02:22:47.218Z,5.70
2023-05-19T02:25:15.050Z,4.80
2023-05-19T02:27:43.232Z,4.70
2023-05-19T02:30:11.097Z,5.00
2023-05-19T02:32:38.737Z,5.05
2023-05-19T02:35:07.048Z,5.25
2023-05-19T02:37:39.059Z,4.53
2023-05-19T02:40:07.959Z,4.70
2023-05-19T02:42:35.758Z,4.18
2023-05-19T02:45:03.648Z,4.93
2023-05-19T02:47:31.383Z,5.43
2023-05-19T02:50:00.846Z,5.43
2023-05-19T02:52:28.717Z,4.43
2023-05-19T02:54:56.327Z,5.28
2023-05-19T02:57:24.207Z,5.50
2023-05-19T02:59:52.007Z,5.40
2023-05-19T03:02:19.732Z,5.72
2023-05-19T03:04:47.339Z,5.50
2023-05-19T03:07:15.653Z,6.05
2023-05-19T03:09:43.195Z,5.50
2023-05-19T03:12:10.812Z,5.50
2023-05-19T03:14:38.794Z,4.90
2023-05-19T03:17:10.369Z,5.82
2023-05-19T03:19:38.101Z,6.13
2023-05-19T03:22:05.755Z,5.47
2023-05-19T03:24:35.168Z,6.70
2023-05-19T03:27:05.922Z,5.88
2023-05-19T03:29:34.008Z,5.70
2023-05-19T03:32:01.776Z,5.73
2023-05-19T03:34:30.147Z,5.65
2023-05-19T03:36:58.735Z,5.25
2023-05-19T03:39:26.501Z,6.03
2023-05-19T03:41:54.191Z,6.57
2023-05-19T03:44:21.865Z,5.45
2023-05-19T03:46:49.606Z,6.70
2023-05-19T03:49:17.228Z,6.00
2023-05-19T03:52:03.494Z,6.10
2023-05-19T03:54:57.799Z,5.82
2023-05-19T03:57:26.149Z,6.22
2023-05-19T03:59:54.542Z,5.22
2023-05-19T04:02:22.376Z,5.93
2023-05-19T04:04:51.279Z,5.57
2023-05-19T04:07:18.973Z,5.50
2023-05-19T04:09:48.688Z,5.20
2023-05-19T04:12:16.245Z,6.00
2023-05-19T04:14:43.867Z,5.93
2023-05-19T04:17:11.878Z,5.53
2023-05-19T04:19:39.638Z,5.85
2023-05-19T04:22:07.335Z,5.35
2023-05-19T04:24:34.869Z,5.65
2023-05-19T04:27:04.771Z,5.43
2023-05-19T04:29:32.705Z,5.28
2023-05-19T04:32:01.041Z,5.22
2023-05-19T04:34:29.035Z,6.15
2023-05-19T04:39:25.729Z,5.00
2023-05-19T04:46:54.474Z,4.88
2023-05-19T04:49:24.478Z,4.95
2023-05-19T04:51:55.569Z,4.30
2023-05-19T04:54:26.765Z,4.60
2023-05-19T04:59:27.521Z,4.60
2023-05-19T05:01:56.177Z,4.35
2023-05-19T05:04:25.048Z,4.65
2023-05-19T05:06:52.661Z,4.95
2023-05-19T05:09:21.688Z,4.85
2023-05-19T05:11:51.719Z,5.60
2023-05-19T05:14:20.611Z,5.30
2023-05-19T05:16:48.925Z,5.28
2023-05-19T05:19:22.351Z,6.00
2023-05-19T05:24:19.034Z,4.40
2023-05-19T05:26:52.470Z,4.28
2023-05-19T05:31:48.595Z,4.43
2023-05-19T05:34:17.694Z,4.00
2023-05-19T05:36:45.669Z,3.80
2023-05-19T05:39:13.890Z,3.92
2023-05-19T05:41:43.221Z,4.00
2023-05-19T05:44:12.789Z,3.90
2023-05-19T05:46:43.066Z,4.15
2023-05-19T05:49:12.577Z,3.67
2023-05-19T05:51:54.236Z,4.15
2023-05-19T05:54:33.045Z,3.53
2023-05-19T05:59:30.466Z,3.55
2023-05-19T06:01:58.007Z,4.40
2023-05-19T06:04:25.938Z,4.07
2023-05-19T06:07:00.927Z,4.30
2023-05-19T06:09:32.959Z,3.50
2023-05-19T06:12:01.703Z,3.75
2023-05-19T06:14:34.644Z,3.45
2023-05-19T06:17:11.381Z,3.25
2023-05-19T06:19:39.162Z,3.55
2023-05-19T06:22:06.772Z,3.88
2023-05-19T06:24:34.719Z,3.50
2023-05-19T06:27:02.777Z,3.33
2023-05-19T06:29:30.551Z,3.20
2023-05-19T06:32:02.543Z,3.40
2023-05-19T06:34:31.297Z,4.30
2023-05-19T06:37:02.357Z,3.40
2023-05-19T06:39:31.008Z,3.50
2023-05-19T06:41:58.921Z,3.80
2023-05-19T06:45:01.928Z,3.13
2023-05-19T06:47:29.917Z,3.78
2023-05-19T06:49:58.007Z,3.40
2023-05-19T06:52:30.090Z,4.00
2023-05-19T06:54:57.744Z,3.75
2023-05-19T06:57:25.326Z,3.75
2023-05-19T06:59:52.959Z,4.18
2023-05-19T07:02:20.700Z,4.22
2023-05-19T07:04:48.785Z,3.55
2023-05-19T07:07:17.574Z,3.72
2023-05-19T07:09:45.848Z,3.55
2023-05-19T07:12:13.843Z,4.47
2023-05-19T07:14:41.432Z,3.42
2023-05-19T07:17:09.385Z,3.50
2023-05-19T07:19:39.779Z,3.58
2023-05-19T07:22:07.462Z,3.80
2023-05-19T07:24:34.951Z,4.50
2023-05-19T07:27:02.724Z,3.63
2023-05-19T07:29:30.726Z,4.07
2023-05-19T07:31:58.837Z,5.57
2023-05-19T07:34:26.757Z,5.63
2023-05-19T07:36:54.543Z,3.50
2023-05-19T07:39:23.720Z,4.13
2023-05-19T07:41:55.620Z,3.28
2023-05-19T07:44:23.336Z,4.30
2023-05-19T07:46:51.086Z,3.55
2023-05-19T07:49:18.761Z,3.60
2023-05-19T07:51:46.657Z,2.97
2023-05-19T07:54:14.618Z,2.88
2023-05-19T07:59:09.872Z,3.15
2023-05-19T08:01:37.612Z,3.65
2023-05-19T08:06:33.703Z,3.25
2023-05-19T08:11:30.838Z,3.47
2023-05-19T08:14:00.145Z,4.03
2023-05-19T08:16:29.011Z,4.35
2023-05-19T08:18:57.232Z,4.18
2023-05-19T08:21:25.342Z,3.92
2023-05-19T08:23:53.562Z,3.95
2023-05-19T08:26:21.768Z,4.30
2023-05-19T08:28:50.076Z,4.60
2023-05-19T08:33:46.138Z,4.32
2023-05-19T08:36:13.864Z,4.60
2023-05-19T08:38:41.550Z,5.18
2023-05-19T08:41:09.307Z,3.60
2023-05-19T08:43:37.471Z,4.30
2023-05-19T08:48:37.504Z,4.20
2023-05-19T08:51:35.591Z,4.57
2023-05-19T08:54:15.899Z,4.50
2023-05-19T08:56:45.955Z,4.32
2023-05-19T08:59:18.535Z,4.50
2023-05-19T09:01:47.231Z,4.28
2023-05-19T09:04:17.394Z,3.65
2023-05-19T09:06:45.573Z,4.30
2023-05-19T09:09:13.703Z,4.25
2023-05-19T09:16:36.790Z,4.97
2023-05-19T09:19:04.676Z,4.50
2023-05-19T09:24:08.582Z,5.03
2023-05-19T09:26:41.969Z,4.32
2023-05-19T09:29:16.896Z,4.55
2023-05-19T09:32:06.618Z,4.95
2023-05-19T09:34:34.681Z,5.10
2023-05-19T09:37:02.392Z,4.68
2023-05-19T09:39:30.883Z,5.80
2023-05-19T09:41:58.926Z,4.50
2023-05-19T09:44:31.544Z,5.38
2023-05-19T09:47:00.093Z,5.10
2023-05-19T09:49:30.551Z,5.85
2023-05-19T09:52:02.379Z,5.53
2023-05-19T09:54:32.624Z,4.95
2023-05-19T09:57:03.593Z,5.82
2023-05-19T09:59:33.825Z,5.28
2023-05-19T10:02:02.947Z,5.70
2023-05-19T10:04:32.126Z,5.63
2023-05-19T10:07:05.908Z,4.68
2023-05-19T10:09:36.619Z,4.78
2023-05-19T10:12:05.720Z,6.00
2023-05-19T10:14:33.451Z,5.53
2023-05-19T10:17:01.010Z,4.65
2023-05-19T10:19:31.582Z,4.43
2023-05-19T10:21:59.850Z,5.07
2023-05-19T10:24:27.706Z,5.30
2023-05-19T10:27:05.871Z,4.30
2023-05-19T10:29:51.115Z,4.78
2023-05-19T10:32:27.018Z,5.10
2023-05-19T10:35:44.187Z,5.43
2023-05-19T10:38:48.824Z,4.60
2023-05-19T10:41:59.790Z,4.80
2023-05-19T10:44:36.142Z,5.05
2023-05-19T10:47:07.670Z,5.15
2023-05-19T10:49:36.860Z,4.88
2023-05-19T10:52:21.593Z,4.68
2023-05-19T10:54:54.545Z,4.88
2023-05-19T10:57:31.862Z,4.68
2023-05-19T11:00:11.609Z,4.70
2023-05-19T11:02:44.032Z,4.68
2023-05-19T11:05:20.018Z,4.50
2023-05-19T11:08:08.281Z,4.22
2023-05-19T11:10:36.035Z,5.13
2023-05-19T11:13:06.628Z,5.20
2023-05-19T11:15:38.633Z,4.72
2023-05-19T11:18:06.664Z,4.57
2023-05-19T11:20:39.477Z,4.57
2023-05-19T11:23:15.188Z,4.93
2023-05-19T11:25:51.658Z,4.28
2023-05-19T11:28:26.246Z,5.18
2023-05-19T11:30:59.338Z,5.00
2023-05-19T11:33:27.408Z,5.03
2023-05-19T11:36:00.336Z,4.72
2023-05-19T11:38:30.273Z,4.38
2023-05-19T11:40:58.817Z,5.30
2023-05-19T11:43:26.904Z,4.50
2023-05-19T11:45:56.028Z,4.78
2023-05-19T11:48:26.428Z,5.28
2023-05-19T11:50:54.257Z,5.35
2023-05-19T11:55:51.102Z,4.95
2023-05-19T11:58:27.522Z,5.00
2023-05-19T12:00:55.260Z,5.57
2023-05-19T12:03:28.956Z,5.50
2023-05-19T12:05:57.073Z,5.43
2023-05-19T12:08:27.575Z,5.53
2023-05-19T12:10:56.334Z,5.47
2023-05-19T12:13:24.084Z,5.20
2023-05-19T12:18:21.058Z,6.75
2023-05-19T12:20:48.991Z,5.97
2023-05-19T12:23:17.021Z,5.32
2023-05-19T12:25:44.740Z,5.15
2023-05-19T12:28:12.410Z,5.68
2023-05-19T12:30:40.196Z,7.13
2023-05-19T12:33:09.724Z,5.88
2023-05-19T12:35:38.052Z,6.85
2023-05-19T12:38:07.524Z,7.28
2023-05-19T12:40:37.757Z,6.38
2023-05-19T12:43:06.963Z,6.88
2023-05-19T12:45:39.853Z,6.03
2023-05-19T12:48:16.161Z,8.00
2023-05-19T12:50:45.216Z,8.02
2023-05-19T12:53:15.585Z,7.22
2023-05-19T12:55:45.404Z,7.38
2023-05-19T12:58:13.589Z,6.32
2023-05-19T13:00:47.907Z,5.60
2023-05-19T13:03:22.343Z,6.90
2023-05-19T13:05:51.496Z,6.13
2023-05-19T13:08:23.301Z,6.60
2023-05-19T13:10:51.134Z,6.25
2023-05-19T13:13:19.431Z,6.82
2023-05-19T13:15:50.931Z,6.07
2023-05-19T13:18:18.940Z,6.30
2023-05-19T13:20:49.206Z,6.90
2023-05-19T13:23:17.374Z,7.25
2023-05-19T13:25:45.510Z,6.63
2023-05-19T13:28:13.240Z,7.00
2023-05-19T13:33:12.005Z,6.10
2023-05-19T13:35:40.222Z,6.60
2023-05-19T13:38:10.467Z,7.40
2023-05-19T13:40:39.816Z,6.97
2023-05-19T13:43:08.798Z,7.07
2023-05-19T13:45:36.924Z,7.75
2023-05-19T13:48:07.362Z,7.60
2023-05-19T13:50:35.179Z,7.38
2023-05-19T13:53:03.701Z,7.50
2023-05-19T13:55:32.751Z,7.40
2023-05-19T13:58:00.455Z,7.75
2023-05-19T14:00:28.080Z,7.45
2023-05-19T14:02:56.009Z,7.03
2023-05-19T14:05:24.749Z,7.80
2023-05-19T14:07:52.382Z,7.30
2023-05-19T14:10:20.092Z,8.65
2023-05-19T14:13:14.056Z,7.35
2023-05-19T14:18:07.189Z,7.50
2023-05-19T14:20:35.237Z,8.00
2023-05-19T14:23:03.275Z,7.75
2023-05-19T14:25:30.926Z,8.38
2023-05-19T14:35:21.840Z,10.30
2023-05-19T14:40:20.717Z,8.77
2023-05-19T14:42:48.254Z,8.10
2023-05-19T14:45:15.906Z,9.68
2023-05-19T14:47:43.624Z,8.85
2023-05-19T14:50:11.793Z,9.90
2023-05-19T14:52:39.428Z,9.43
2023-05-19T14:55:07.742Z,9.73
2023-05-19T14:57:35.518Z,10.35
2023-05-19T15:02:30.802Z,9.30
2023-05-19T15:04:58.851Z,10.02
2023-05-19T15:07:27.129Z,10.52
2023-05-19T15:09:54.836Z,10.27
2023-05-19T15:12:22.674Z,10.32
2023-05-19T15:14:50.489Z,9.95
2023-05-19T15:17:18.155Z,10.88
2023-05-19T15:19:45.999Z,10.35
2023-05-19T15:22:13.707Z,11.52
2023-05-19T15:24:41.360Z,11.10
2023-05-19T15:27:09.326Z,12.68
2023-05-19T15:34:32.272Z,10.32
2023-05-19T15:37:03.334Z,12.40
2023-05-19T15:39:31.433Z,10.68
2023-05-19T15:41:59.704Z,11.55
2023-05-19T15:44:29.032Z,11.93
2023-05-19T15:46:56.976Z,11.13
2023-05-19T15:49:25.336Z,10.32
2023-05-19T15:51:52.887Z,10.63
2023-05-19T15:54:20.664Z,10.68
2023-05-19T15:56:48.429Z,9.68
2023-05-19T15:59:16.122Z,9.43
2023-05-19T16:01:43.835Z,9.63
2023-05-19T16:04:11.567Z,9.48
2023-05-19T16:06:39.206Z,9.15
2023-05-19T16:09:07.001Z,10.13
2023-05-19T16:11:34.632Z,10.00
2023-05-19T16:14:02.346Z,9.20
2023-05-19T16:16:30.573Z,10.27
2023-05-19T16:19:01.255Z,9.55
2023-05-19T16:21:28.997Z,10.93
2023-05-19T16:23:56.651Z,10.57
2023-05-19T16:26:24.352Z,11.00
2023-05-19T16:28:51.898Z,10.13
2023-05-19T16:31:19.467Z,11.35
2023-05-19T16:33:47.217Z,11.52
2023-05-19T16:36:14.865Z,11.15
2023-05-19T16:38:42.428Z,12.07
2023-05-19T16:41:12.859Z,11.35
2023-05-19T16:43:40.487Z,10.68
2023-05-19T16:46:10.025Z,8.50
2023-05-19T16:48:38.034Z,9.70
2023-05-19T16:53:32.855Z,9.90
2023-05-19T16:56:00.714Z,9.15
2023-05-19T16:58:29.565Z,10.13
2023-05-19T17:00:58.827Z,9.65
2023-05-19T17:03:26.668Z,10.27
2023-05-19T17:08:21.845Z,10.20
2023-05-19T17:10:49.651Z,9.43
2023-05-19T17:13:17.263Z,9.77
2023-05-19T17:15:44.797Z,9.68
2023-05-19T17:18:12.758Z,9.55
2023-05-19T17:20:41.624Z,10.43
2023-05-19T17:23:09.468Z,10.60
2023-05-19T17:25:37.192Z,9.73
2023-05-19T17:28:04.797Z,10.25
2023-05-19T17:30:33.012Z,9.30
2023-05-19T17:33:01.073Z,9.80
2023-05-19T17:35:28.796Z,9.95
2023-05-19T17:37:57.916Z,10.25
2023-05-19T17:40:25.530Z,9.55
2023-05-19T17:42:53.239Z,10.30
2023-05-19T17:45:20.946Z,10.02
2023-05-19T17:47:48.553Z,10.63
2023-05-19T17:50:16.284Z,11.00
2023-05-19T17:52:44.362Z,10.45
2023-05-19T17:57:45.203Z,11.18
2023-05-19T18:00:13.617Z,12.85
2023-05-19T18:02:41.739Z,13.30
2023-05-19T18:07:41.821Z,11.88
2023-05-19T18:10:10.790Z,13.05
2023-05-19T18:12:38.294Z,13.50
2023-05-19T18:15:06.753Z,13.85
2023-05-19T18:17:34.409Z,14.40
2023-05-19T18:20:02.622Z,16.52
2023-05-19T18:22:30.490Z,17.13
2023-05-19T18:24:58.176Z,16.55
2023-05-19T18:27:27.843Z,15.13
2023-05-19T18:29:55.419Z,15.23
2023-05-19T18:32:23.071Z,14.75
2023-05-19T18:34:51.033Z,15.10
2023-05-19T18:37:18.652Z,13.57
2023-05-19T18:39:47.483Z,13.10
2023-05-19T18:42:15.039Z,12.68
2023-05-19T18:44:46.859Z,13.23
2023-05-19T18:47:22.793Z,12.60
2023-05-19T18:49:50.594Z,13.23
2023-05-19T18:52:19.196Z,13.77
2023-05-19T18:54:47.266Z,13.52
2023-05-19T18:57:15.218Z,12.63
2023-05-19T18:59:43.045Z,13.70
2023-05-19T19:02:10.679Z,13.15
2023-05-19T19:04:38.390Z,11.93
2023-05-19T19:07:06.177Z,13.02
2023-05-19T19:09:34.333Z,14.20
2023-05-19T19:12:02.103Z,13.05
2023-05-19T19:14:29.973Z,14.15
2023-05-19T19:16:57.549Z,13.85
2023-05-19T19:19:28.404Z,13.73
2023-05-19T19:21:56.399Z,13.23
2023-05-19T19:24:23.974Z,12.85
2023-05-19T19:26:51.594Z,13.73
2023-05-19T19:29:21.784Z,12.65
2023-05-19T19:31:49.693Z,14.02
2023-05-19T19:34:20.264Z,12.45
2023-05-19T19:36:48.283Z,12.95
2023-05-19T19:39:15.791Z,12.40
2023-05-19T19:41:43.509Z,13.32
2023-05-19T19:44:11.130Z,12.77
2023-05-19T19:46:38.750Z,12.10
2023-05-19T19:49:06.853Z,12.63
2023-05-19T19:51:34.648Z,13.15
2023-05-19T19:54:02.288Z,14.05
2023-05-19T19:56:30.152Z,14.80
2023-05-19T19:58:59.042Z,14.05
2023-05-19T20:01:27.969Z,15.55
2023-05-19T20:03:57.786Z,14.57
2023-05-19T20:06:25.460Z,16.02
2023-05-19T20:08:53.185Z,12.32
2023-05-19T20:11:23.002Z,12.95
2023-05-19T20:13:50.825Z,12.52
2023-05-19T20:16:19.009Z,13.05
2023-05-19T20:18:49.030Z,12.18
2023-05-19T20:21:16.818Z,12.07
2023-05-19T20:23:44.592Z,16.17
2023-05-19T20:26:13.484Z,15.90
2023-05-19T20:28:41.574Z,16.20
2023-05-19T20:31:10.179Z,16.42
2023-05-19T20:36:08.228Z,14.87
2023-05-19T20:38:36.141Z,15.63
2023-05-19T20:41:04.029Z,16.20
2023-05-19T20:43:33.137Z,15.55
2023-05-19T20:46:01.780Z,15.63
2023-05-19T20:48:30.840Z,15.70
2023-05-19T20:50:58.509Z,13.13
2023-05-19T20:53:26.462Z,15.35
2023-05-19T20:55:54.036Z,18.20
2023-05-19T20:58:21.926Z,21.08
2023-05-19T21:00:56.970Z,20.50
2023-05-19T21:03:27.145Z,18.85
2023-05-19T21:05:55.671Z,17.65
2023-05-19T21:08:24.166Z,18.92
2023-05-19T21:10:51.758Z,16.85
2023-05-19T21:13:19.398Z,16.67
2023-05-19T21:15:50.335Z,28.58
2023-05-19T21:18:18.059Z,16.33
2023-05-19T21:20:46.908Z,18.08
2023-05-19T21:23:14.489Z,16.85
2023-05-19T21:25:43.432Z,17.48
2023-05-19T21:28:12.931Z,17.95
2023-05-19T21:30:40.648Z,18.00
2023-05-19T21:33:08.524Z,20.60
2023-05-19T21:35:37.929Z,20.17
2023-05-19T21:38:15.694Z,18.08
2023-05-19T21:40:51.048Z,18.15
2023-05-19T21:43:19.520Z,18.02
2023-05-19T21:45:47.206Z,20.42
2023-05-19T21:48:14.737Z,19.48
2023-05-19T21:50:42.421Z,17.08
2023-05-19T21:53:10.076Z,17.03
2023-05-19T21:55:37.723Z,17.67
2023-05-19T21:58:05.238Z,18.67
2023-05-19T22:00:32.962Z,15.57
2023-05-19T22:03:00.786Z,17.27
2023-05-19T22:05:32.161Z,18.60
2023-05-19T22:07:59.926Z,17.17
2023-05-19T22:10:27.700Z,18.65
2023-05-19T22:12:55.527Z,18.93
2023-05-19T22:15:23.225Z,17.73
2023-05-19T22:17:51.196Z,17.92
2023-05-19T22:20:18.832Z,18.13
2023-05-19T22:22:46.331Z,18.37
2023-05-19T22:25:13.906Z,19.00
2023-05-19T22:27:41.406Z,18.77
2023-05-19T22:30:09.214Z,17.50
2023-05-19T22:32:36.724Z,17.60
2023-05-19T22:35:06.445Z,18.37
2023-05-19T22:37:34.223Z,17.08
2023-05-19T22:40:01.735Z,16.58
2023-05-19T22:42:29.186Z,17.27
2023-05-19T22:44:56.801Z,17.40
2023-05-19T22:47:24.396Z,18.20
2023-05-19T22:49:52.470Z,18.33
2023-05-19T22:52:20.897Z,18.13
2023-05-19T22:54:48.640Z,18.27
2023-05-19T22:57:16.849Z,17.83
2023-05-19T22:59:44.316Z,18.52
2023-05-19T23:02:11.830Z,18.33
2023-05-19T23:04:39.399Z,18.13
2023-05-19T23:07:07.007Z,16.85
2023-05-19T23:09:34.487Z,18.50
2023-05-19T23:12:01.975Z,18.13
2023-05-19T23:14:29.811Z,17.47
2023-05-19T23:16:57.593Z,15.93
2023-05-19T23:19:25.382Z,17.92
2023-05-19T23:21:53.051Z,16.65
2023-05-19T23:24:20.670Z,16.23
2023-05-19T23:26:48.179Z,16.90
2023-05-19T23:29:16.099Z,16.60
2023-05-19T23:31:44.789Z,17.20
2023-05-19T23:34:12.399Z,17.48
2023-05-19T23:36:40.065Z,16.43
2023-05-19T23:39:07.729Z,16.25
2023-05-19T23:41:35.301Z,17.45
2023-05-19T23:44:02.946Z,17.80
2023-05-19T23:46:30.774Z,17.17
2023-05-19T23:48:58.333Z,17.75
2023-05-19T23:51:26.217Z,17.98
2023-05-19T23:53:53.635Z,16.92
2023-05-19T23:56:21.735Z,17.97
2023-05-19T23:58:49.270Z,16.30
